sensor_id;sensor_type;location;lat;lon;timestamp;temperature;humidity
57264;DHT22;43113;53.124;6.092;2022-10-16T00:01:58;12.20;99.90
57264;DHT22;43113;53.124;6.092;2022-10-16T00:04:24;12.20;99.90
57264;DHT22;43113;53.124;6.092;2022-10-16T00:06:50;12.20;99.90
57264;DHT22;43113;53.124;6.092;2022-10-16T00:09:15;12.20;99.90
57264;DHT22;43113;53.124;6.092;2022-10-16T00:11:41;12.10;99.90
57264;DHT22;43113;53.124;6.092;2022-10-16T00:14:10;12.10;99.90
57264;DHT22;43113;53.124;6.092;2022-10-16T00:16:37;12.10;99.90
57264;DHT22;43113;53.124;6.092;2022-10-16T00:19:03;12.10;99.90
57264;DHT22;43113;53.124;6.092;2022-10-16T00:21:30;12.10;99.90
57264;DHT22;43113;53.124;6.092;2022-10-16T00:23:59;12.10;99.90
57264;DHT22;43113;53.124;6.092;2022-10-16T00:26:26;12.00;99.90
57264;DHT22;43113;53.124;6.092;2022-10-16T00:28:52;12.00;99.90
57264;DHT22;43113;53.124;6.092;2022-10-16T00:31:20;12.00;99.90
57264;DHT22;43113;53.124;6.092;2022-10-16T00:33:47;12.00;99.90
57264;DHT22;43113;53.124;6.092;2022-10-16T00:36:16;12.00;99.90
57264;DHT22;43113;53.124;6.092;2022-10-16T00:38:43;12.00;99.90
57264;DHT22;43113;53.124;6.092;2022-10-16T00:41:12;12.00;99.90
57264;DHT22;43113;53.124;6.092;2022-10-16T00:43:48;12.00;99.90
57264;DHT22;43113;53.124;6.092;2022-10-16T00:46:24;12.10;99.90
57264;DHT22;43113;53.124;6.092;2022-10-16T00:51:50;12.10;99.90
57264;DHT22;43113;53.124;6.092;2022-10-16T00:54:26;12.20;99.90
57264;DHT22;43113;53.124;6.092;2022-10-16T00:56:53;12.20;99.90
57264;DHT22;43113;53.124;6.092;2022-10-16T00:59:24;12.20;99.90
57264;DHT22;43113;53.124;6.092;2022-10-16T01:01:51;12.20;99.90
57264;DHT22;43113;53.124;6.092;2022-10-16T01:04:17;12.20;99.90
57264;DHT22;43113;53.124;6.092;2022-10-16T01:10:35;12.20;99.90
57264;DHT22;43113;53.124;6.092;2022-10-16T01:19:00;12.30;99.90
57264;DHT22;43113;53.124;6.092;2022-10-16T01:21:40;12.30;99.90
57264;DHT22;43113;53.124;6.092;2022-10-16T01:24:41;12.30;99.90
57264;DHT22;43113;53.124;6.092;2022-10-16T01:27:12;12.30;99.90
57264;DHT22;43113;53.124;6.092;2022-10-16T01:37:22;12.40;99.90
57264;DHT22;43113;53.124;6.092;2022-10-16T01:39:56;12.40;99.90
57264;DHT22;43113;53.124;6.092;2022-10-16T01:42:35;12.40;99.90
57264;DHT22;43113;53.124;6.092;2022-10-16T01:45:02;12.40;99.90
57264;DHT22;43113;53.124;6.092;2022-10-16T01:47:30;12.40;99.90
57264;DHT22;43113;53.124;6.092;2022-10-16T01:49:57;12.40;99.90
57264;DHT22;43113;53.124;6.092;2022-10-16T01:52:26;12.50;99.90
57264;DHT22;43113;53.124;6.092;2022-10-16T01:54:54;12.50;99.90
57264;DHT22;43113;53.124;6.092;2022-10-16T01:57:23;12.50;99.90
57264;DHT22;43113;53.124;6.092;2022-10-16T01:59:53;12.50;99.90
57264;DHT22;43113;53.124;6.092;2022-10-16T02:02:20;12.60;99.90
57264;DHT22;43113;53.124;6.092;2022-10-16T02:04:57;12.60;99.90
57264;DHT22;43113;53.124;6.092;2022-10-16T02:07:23;12.60;99.90
57264;DHT22;43113;53.124;6.092;2022-10-16T02:09:49;12.60;99.90
57264;DHT22;43113;53.124;6.092;2022-10-16T02:12:22;12.60;99.90
57264;DHT22;43113;53.124;6.092;2022-10-16T02:14:49;12.60;99.90
57264;DHT22;43113;53.124;6.092;2022-10-16T02:17:17;12.70;99.90
57264;DHT22;43113;53.124;6.092;2022-10-16T02:19:45;12.60;99.90
57264;DHT22;43113;53.124;6.092;2022-10-16T02:22:25;12.60;99.90
57264;DHT22;43113;53.124;6.092;2022-10-16T02:25:06;12.70;99.90
57264;DHT22;43113;53.124;6.092;2022-10-16T02:28:02;12.70;99.90
57264;DHT22;43113;53.124;6.092;2022-10-16T02:30:36;12.70;99.90
57264;DHT22;43113;53.124;6.092;2022-10-16T02:33:06;12.70;99.90
57264;DHT22;43113;53.124;6.092;2022-10-16T02:35:33;12.70;99.90
57264;DHT22;43113;53.124;6.092;2022-10-16T02:37:59;12.60;99.90
57264;DHT22;43113;53.124;6.092;2022-10-16T02:40:26;12.60;99.90
57264;DHT22;43113;53.124;6.092;2022-10-16T02:42:53;12.60;99.90
57264;DHT22;43113;53.124;6.092;2022-10-16T02:45:19;12.50;99.90
57264;DHT22;43113;53.124;6.092;2022-10-16T02:47:45;12.40;99.90
57264;DHT22;43113;53.124;6.092;2022-10-16T02:50:11;12.30;99.90
57264;DHT22;43113;53.124;6.092;2022-10-16T02:52:37;12.20;99.90
57264;DHT22;43113;53.124;6.092;2022-10-16T02:55:03;12.20;99.90
57264;DHT22;43113;53.124;6.092;2022-10-16T02:57:28;12.20;99.90
57264;DHT22;43113;53.124;6.092;2022-10-16T02:59:54;12.10;99.90
57264;DHT22;43113;53.124;6.092;2022-10-16T03:02:20;12.10;99.90
57264;DHT22;43113;53.124;6.092;2022-10-16T03:04:46;12.10;99.90
57264;DHT22;43113;53.124;6.092;2022-10-16T03:07:12;12.00;99.90
57264;DHT22;43113;53.124;6.092;2022-10-16T03:09:37;12.00;99.90
57264;DHT22;43113;53.124;6.092;2022-10-16T03:12:03;12.00;99.90
57264;DHT22;43113;53.124;6.092;2022-10-16T03:14:29;12.00;99.90
57264;DHT22;43113;53.124;6.092;2022-10-16T03:16:55;12.00;99.90
57264;DHT22;43113;53.124;6.092;2022-10-16T03:19:20;12.00;99.90
57264;DHT22;43113;53.124;6.092;2022-10-16T03:21:46;12.00;99.90
57264;DHT22;43113;53.124;6.092;2022-10-16T03:24:12;12.00;99.90
57264;DHT22;43113;53.124;6.092;2022-10-16T03:26:37;11.90;99.90
57264;DHT22;43113;53.124;6.092;2022-10-16T03:29:03;11.90;99.90
57264;DHT22;43113;53.124;6.092;2022-10-16T03:31:29;11.90;99.90
57264;DHT22;43113;53.124;6.092;2022-10-16T03:33:55;11.90;99.90
57264;DHT22;43113;53.124;6.092;2022-10-16T03:36:21;11.90;99.90
57264;DHT22;43113;53.124;6.092;2022-10-16T03:38:47;11.80;99.90
57264;DHT22;43113;53.124;6.092;2022-10-16T03:41:13;11.80;99.90
57264;DHT22;43113;53.124;6.092;2022-10-16T03:43:38;11.80;99.90
57264;DHT22;43113;53.124;6.092;2022-10-16T03:46:04;11.80;99.90
57264;DHT22;43113;53.124;6.092;2022-10-16T03:48:30;11.80;99.90
57264;DHT22;43113;53.124;6.092;2022-10-16T03:50:55;11.80;99.90
57264;DHT22;43113;53.124;6.092;2022-10-16T03:53:21;11.70;99.90
57264;DHT22;43113;53.124;6.092;2022-10-16T03:55:47;11.70;99.90
57264;DHT22;43113;53.124;6.092;2022-10-16T03:58:12;11.70;99.90
57264;DHT22;43113;53.124;6.092;2022-10-16T04:00:42;11.70;99.90
57264;DHT22;43113;53.124;6.092;2022-10-16T04:03:08;11.70;99.90
57264;DHT22;43113;53.124;6.092;2022-10-16T04:05:34;11.70;99.90
57264;DHT22;43113;53.124;6.092;2022-10-16T04:08:00;11.80;99.90
57264;DHT22;43113;53.124;6.092;2022-10-16T04:10:25;11.80;99.90
57264;DHT22;43113;53.124;6.092;2022-10-16T04:12:51;11.80;99.90
57264;DHT22;43113;53.124;6.092;2022-10-16T04:15:17;11.80;99.90
57264;DHT22;43113;53.124;6.092;2022-10-16T04:17:43;11.80;99.90
57264;DHT22;43113;53.124;6.092;2022-10-16T04:20:09;11.80;99.90
57264;DHT22;43113;53.124;6.092;2022-10-16T04:22:34;11.90;99.90
57264;DHT22;43113;53.124;6.092;2022-10-16T04:25:00;11.90;99.90
57264;DHT22;43113;53.124;6.092;2022-10-16T04:27:26;12.00;99.90
57264;DHT22;43113;53.124;6.092;2022-10-16T04:29:51;12.10;99.90
57264;DHT22;43113;53.124;6.092;2022-10-16T04:32:17;12.20;99.90
57264;DHT22;43113;53.124;6.092;2022-10-16T04:34:43;12.20;99.90
57264;DHT22;43113;53.124;6.092;2022-10-16T04:37:09;12.30;99.90
57264;DHT22;43113;53.124;6.092;2022-10-16T04:39:34;12.30;99.90
57264;DHT22;43113;53.124;6.092;2022-10-16T04:42:00;12.40;99.90
57264;DHT22;43113;53.124;6.092;2022-10-16T04:44:26;12.40;99.90
57264;DHT22;43113;53.124;6.092;2022-10-16T04:46:51;12.40;99.90
57264;DHT22;43113;53.124;6.092;2022-10-16T04:49:17;12.40;99.90
57264;DHT22;43113;53.124;6.092;2022-10-16T04:51:43;12.40;99.90
57264;DHT22;43113;53.124;6.092;2022-10-16T04:54:09;12.50;99.90
57264;DHT22;43113;53.124;6.092;2022-10-16T04:56:35;12.50;99.90
57264;DHT22;43113;53.124;6.092;2022-10-16T04:59:08;12.50;99.90
57264;DHT22;43113;53.124;6.092;2022-10-16T05:01:34;12.50;99.90
57264;DHT22;43113;53.124;6.092;2022-10-16T05:04:00;12.50;99.90
57264;DHT22;43113;53.124;6.092;2022-10-16T05:06:25;12.50;99.90
57264;DHT22;43113;53.124;6.092;2022-10-16T05:08:51;12.40;99.90
57264;DHT22;43113;53.124;6.092;2022-10-16T05:11:17;12.40;99.90
57264;DHT22;43113;53.124;6.092;2022-10-16T05:13:43;12.40;99.90
57264;DHT22;43113;53.124;6.092;2022-10-16T05:16:08;12.40;99.90
57264;DHT22;43113;53.124;6.092;2022-10-16T05:18:34;12.40;99.90
57264;DHT22;43113;53.124;6.092;2022-10-16T05:21:00;12.40;99.90
57264;DHT22;43113;53.124;6.092;2022-10-16T05:23:25;12.50;99.90
57264;DHT22;43113;53.124;6.092;2022-10-16T05:25:55;12.40;99.90
57264;DHT22;43113;53.124;6.092;2022-10-16T05:28:24;12.40;99.90
57264;DHT22;43113;53.124;6.092;2022-10-16T05:30:50;12.40;99.90
57264;DHT22;43113;53.124;6.092;2022-10-16T05:33:16;12.40;99.90
57264;DHT22;43113;53.124;6.092;2022-10-16T05:35:42;12.40;99.90
57264;DHT22;43113;53.124;6.092;2022-10-16T05:38:09;12.30;99.90
57264;DHT22;43113;53.124;6.092;2022-10-16T05:40:34;12.40;99.90
57264;DHT22;43113;53.124;6.092;2022-10-16T05:43:00;12.30;99.90
57264;DHT22;43113;53.124;6.092;2022-10-16T05:45:26;12.40;99.90
57264;DHT22;43113;53.124;6.092;2022-10-16T05:47:52;12.40;99.90
57264;DHT22;43113;53.124;6.092;2022-10-16T05:50:18;12.30;99.90
57264;DHT22;43113;53.124;6.092;2022-10-16T05:52:43;12.30;99.90
57264;DHT22;43113;53.124;6.092;2022-10-16T05:55:09;12.20;99.90
57264;DHT22;43113;53.124;6.092;2022-10-16T05:57:35;12.20;99.90
57264;DHT22;43113;53.124;6.092;2022-10-16T06:00:00;12.20;99.90
57264;DHT22;43113;53.124;6.092;2022-10-16T06:02:27;12.20;99.90
57264;DHT22;43113;53.124;6.092;2022-10-16T06:04:52;12.20;99.90
57264;DHT22;43113;53.124;6.092;2022-10-16T06:07:21;12.20;99.90
57264;DHT22;43113;53.124;6.092;2022-10-16T06:09:51;12.30;99.90
57264;DHT22;43113;53.124;6.092;2022-10-16T06:12:17;12.30;99.90
57264;DHT22;43113;53.124;6.092;2022-10-16T06:14:45;12.30;99.90
57264;DHT22;43113;53.124;6.092;2022-10-16T06:17:12;12.30;99.90
57264;DHT22;43113;53.124;6.092;2022-10-16T06:19:39;12.30;99.90
57264;DHT22;43113;53.124;6.092;2022-10-16T06:22:04;12.30;99.90
57264;DHT22;43113;53.124;6.092;2022-10-16T06:24:30;12.40;99.90
57264;DHT22;43113;53.124;6.092;2022-10-16T06:26:56;12.40;99.90
57264;DHT22;43113;53.124;6.092;2022-10-16T06:29:22;12.40;99.90
57264;DHT22;43113;53.124;6.092;2022-10-16T06:31:47;12.50;99.90
57264;DHT22;43113;53.124;6.092;2022-10-16T06:34:13;12.50;99.90
57264;DHT22;43113;53.124;6.092;2022-10-16T06:36:39;12.50;99.90
57264;DHT22;43113;53.124;6.092;2022-10-16T06:39:05;12.60;99.90
57264;DHT22;43113;53.124;6.092;2022-10-16T06:41:33;12.60;99.90
57264;DHT22;43113;53.124;6.092;2022-10-16T06:43:59;12.70;99.90
57264;DHT22;43113;53.124;6.092;2022-10-16T06:46:25;12.60;99.90
57264;DHT22;43113;53.124;6.092;2022-10-16T06:48:52;12.70;99.90
57264;DHT22;43113;53.124;6.092;2022-10-16T06:51:20;12.60;99.90
57264;DHT22;43113;53.124;6.092;2022-10-16T06:53:51;12.70;99.90
57264;DHT22;43113;53.124;6.092;2022-10-16T06:56:25;12.70;99.90
57264;DHT22;43113;53.124;6.092;2022-10-16T06:58:52;12.70;99.90
57264;DHT22;43113;53.124;6.092;2022-10-16T07:01:20;12.80;99.90
57264;DHT22;43113;53.124;6.092;2022-10-16T07:03:46;12.80;99.90
57264;DHT22;43113;53.124;6.092;2022-10-16T07:06:15;12.80;99.90
57264;DHT22;43113;53.124;6.092;2022-10-16T07:08:44;12.80;99.90
57264;DHT22;43113;53.124;6.092;2022-10-16T07:11:15;12.80;99.90
57264;DHT22;43113;53.124;6.092;2022-10-16T07:13:42;12.80;99.90
57264;DHT22;43113;53.124;6.092;2022-10-16T07:16:10;12.80;99.90
57264;DHT22;43113;53.124;6.092;2022-10-16T07:18:36;12.90;99.90
57264;DHT22;43113;53.124;6.092;2022-10-16T07:21:27;12.90;99.90
57264;DHT22;43113;53.124;6.092;2022-10-16T07:23:57;12.90;99.90
57264;DHT22;43113;53.124;6.092;2022-10-16T07:26:24;12.90;99.90
57264;DHT22;43113;53.124;6.092;2022-10-16T07:28:50;12.90;99.90
57264;DHT22;43113;53.124;6.092;2022-10-16T07:31:17;12.90;99.90
57264;DHT22;43113;53.124;6.092;2022-10-16T07:33:44;12.90;99.90
57264;DHT22;43113;53.124;6.092;2022-10-16T07:36:11;12.90;99.90
57264;DHT22;43113;53.124;6.092;2022-10-16T07:38:37;12.90;99.90
57264;DHT22;43113;53.124;6.092;2022-10-16T07:41:06;12.80;99.90
57264;DHT22;43113;53.124;6.092;2022-10-16T07:43:32;12.90;99.90
57264;DHT22;43113;53.124;6.092;2022-10-16T07:45:58;12.90;99.90
57264;DHT22;43113;53.124;6.092;2022-10-16T07:48:30;13.10;99.90
57264;DHT22;43113;53.124;6.092;2022-10-16T07:51:04;13.20;99.90
57264;DHT22;43113;53.124;6.092;2022-10-16T07:53:31;13.50;99.90
57264;DHT22;43113;53.124;6.092;2022-10-16T07:56:01;13.50;99.90
57264;DHT22;43113;53.124;6.092;2022-10-16T07:58:28;13.60;99.90
57264;DHT22;43113;53.124;6.092;2022-10-16T08:00:54;13.70;99.90
57264;DHT22;43113;53.124;6.092;2022-10-16T08:03:20;13.80;99.90
57264;DHT22;43113;53.124;6.092;2022-10-16T08:05:46;13.80;99.90
57264;DHT22;43113;53.124;6.092;2022-10-16T08:08:17;14.00;99.90
57264;DHT22;43113;53.124;6.092;2022-10-16T08:10:44;14.00;99.90
57264;DHT22;43113;53.124;6.092;2022-10-16T08:13:09;14.00;99.90
57264;DHT22;43113;53.124;6.092;2022-10-16T08:15:35;14.00;99.90
57264;DHT22;43113;53.124;6.092;2022-10-16T08:18:03;14.10;99.90
57264;DHT22;43113;53.124;6.092;2022-10-16T08:20:30;14.10;99.90
57264;DHT22;43113;53.124;6.092;2022-10-16T08:22:56;14.50;99.90
57264;DHT22;43113;53.124;6.092;2022-10-16T08:25:23;14.50;99.90
57264;DHT22;43113;53.124;6.092;2022-10-16T08:27:49;14.70;99.90
57264;DHT22;43113;53.124;6.092;2022-10-16T08:30:16;14.60;99.90
57264;DHT22;43113;53.124;6.092;2022-10-16T08:32:42;14.60;99.90
57264;DHT22;43113;53.124;6.092;2022-10-16T08:35:09;14.90;99.90
57264;DHT22;43113;53.124;6.092;2022-10-16T08:37:36;14.90;99.90
57264;DHT22;43113;53.124;6.092;2022-10-16T08:40:02;15.60;99.90
57264;DHT22;43113;53.124;6.092;2022-10-16T08:42:31;16.10;99.90
57264;DHT22;43113;53.124;6.092;2022-10-16T08:45:03;16.90;99.90
57264;DHT22;43113;53.124;6.092;2022-10-16T08:50:27;17.80;99.90
57264;DHT22;43113;53.124;6.092;2022-10-16T08:52:54;17.90;99.90
57264;DHT22;43113;53.124;6.092;2022-10-16T08:58:16;18.30;99.90
57264;DHT22;43113;53.124;6.092;2022-10-16T09:00:44;18.70;99.90
57264;DHT22;43113;53.124;6.092;2022-10-16T09:17:00;19.10;99.90
57264;DHT22;43113;53.124;6.092;2022-10-16T09:19:36;19.40;99.90
57264;DHT22;43113;53.124;6.092;2022-10-16T09:22:12;19.90;99.90
57264;DHT22;43113;53.124;6.092;2022-10-16T09:34:36;22.50;99.90
57264;DHT22;43113;53.124;6.092;2022-10-16T09:37:08;22.80;99.90
57264;DHT22;43113;53.124;6.092;2022-10-16T09:39:52;23.30;99.90
57264;DHT22;43113;53.124;6.092;2022-10-16T09:44:53;23.90;99.90
57264;DHT22;43113;53.124;6.092;2022-10-16T09:47:27;24.20;99.00
57264;DHT22;43113;53.124;6.092;2022-10-16T09:50:02;24.70;98.50
57264;DHT22;43113;53.124;6.092;2022-10-16T09:52:32;24.90;95.80
57264;DHT22;43113;53.124;6.092;2022-10-16T09:55:13;24.80;95.70
57264;DHT22;43113;53.124;6.092;2022-10-16T09:57:53;24.30;96.30
57264;DHT22;43113;53.124;6.092;2022-10-16T10:00:20;24.30;96.10
57264;DHT22;43113;53.124;6.092;2022-10-16T10:02:46;24.30;95.00
57264;DHT22;43113;53.124;6.092;2022-10-16T10:05:38;24.00;95.90
57264;DHT22;43113;53.124;6.092;2022-10-16T10:08:04;24.50;95.40
57264;DHT22;43113;53.124;6.092;2022-10-16T10:10:41;24.60;94.70
57264;DHT22;43113;53.124;6.092;2022-10-16T10:13:22;24.50;95.10
57264;DHT22;43113;53.124;6.092;2022-10-16T10:15:50;24.70;94.60
57264;DHT22;43113;53.124;6.092;2022-10-16T10:18:18;24.70;94.70
57264;DHT22;43113;53.124;6.092;2022-10-16T10:20:45;24.80;93.10
57264;DHT22;43113;53.124;6.092;2022-10-16T10:23:29;25.10;93.30
57264;DHT22;43113;53.124;6.092;2022-10-16T10:26:15;24.40;92.20
57264;DHT22;43113;53.124;6.092;2022-10-16T10:28:59;24.20;92.40
57264;DHT22;43113;53.124;6.092;2022-10-16T10:34:52;24.80;93.70
57264;DHT22;43113;53.124;6.092;2022-10-16T10:43:02;24.90;91.50
57264;DHT22;43113;53.124;6.092;2022-10-16T10:45:42;24.40;91.60
57264;DHT22;43113;53.124;6.092;2022-10-16T10:48:24;24.10;91.60
57264;DHT22;43113;53.124;6.092;2022-10-16T11:09:21;23.90;92.60
57264;DHT22;43113;53.124;6.092;2022-10-16T11:12:00;23.70;93.50
57264;DHT22;43113;53.124;6.092;2022-10-16T11:14:35;21.80;93.10
57264;DHT22;43113;53.124;6.092;2022-10-16T11:17:18;21.50;93.50
57264;DHT22;43113;53.124;6.092;2022-10-16T11:20:13;20.70;96.00
57264;DHT22;43113;53.124;6.092;2022-10-16T11:22:55;19.90;97.50
57264;DHT22;43113;53.124;6.092;2022-10-16T11:25:28;19.70;98.10
57264;DHT22;43113;53.124;6.092;2022-10-16T11:28:01;19.90;97.60
57264;DHT22;43113;53.124;6.092;2022-10-16T11:30:30;20.30;97.40
57264;DHT22;43113;53.124;6.092;2022-10-16T11:35:54;19.80;96.80
57264;DHT22;43113;53.124;6.092;2022-10-16T11:38:58;19.50;96.90
57264;DHT22;43113;53.124;6.092;2022-10-16T11:41:48;19.30;97.60
57264;DHT22;43113;53.124;6.092;2022-10-16T11:49:47;18.60;98.50
57264;DHT22;43113;53.124;6.092;2022-10-16T11:52:39;18.50;99.20
57264;DHT22;43113;53.124;6.092;2022-10-16T11:55:22;18.40;99.40
57264;DHT22;43113;53.124;6.092;2022-10-16T11:57:56;18.40;99.90
57264;DHT22;43113;53.124;6.092;2022-10-16T12:00:40;18.50;99.90
57264;DHT22;43113;53.124;6.092;2022-10-16T12:08:37;18.20;99.90
57264;DHT22;43113;53.124;6.092;2022-10-16T12:11:24;18.20;99.90
57264;DHT22;43113;53.124;6.092;2022-10-16T12:16:58;17.80;99.90
57264;DHT22;43113;53.124;6.092;2022-10-16T12:19:30;17.80;99.90
57264;DHT22;43113;53.124;6.092;2022-10-16T12:22:00;17.70;99.90
57264;DHT22;43113;53.124;6.092;2022-10-16T12:24:38;17.70;99.90
57264;DHT22;43113;53.124;6.092;2022-10-16T12:27:30;17.60;99.90
57264;DHT22;43113;53.124;6.092;2022-10-16T12:30:02;17.60;99.90
57264;DHT22;43113;53.124;6.092;2022-10-16T12:32:36;17.70;99.90
57264;DHT22;43113;53.124;6.092;2022-10-16T12:35:04;17.60;99.90
57264;DHT22;43113;53.124;6.092;2022-10-16T12:37:31;17.60;99.90
57264;DHT22;43113;53.124;6.092;2022-10-16T12:39:58;17.60;99.90
57264;DHT22;43113;53.124;6.092;2022-10-16T12:44:54;17.40;99.90
57264;DHT22;43113;53.124;6.092;2022-10-16T12:47:36;17.40;99.90
57264;DHT22;43113;53.124;6.092;2022-10-16T12:50:03;17.40;99.90
57264;DHT22;43113;53.124;6.092;2022-10-16T12:52:48;17.50;99.90
57264;DHT22;43113;53.124;6.092;2022-10-16T12:55:20;17.60;99.90
57264;DHT22;43113;53.124;6.092;2022-10-16T13:03:22;17.90;99.90
57264;DHT22;43113;53.124;6.092;2022-10-16T13:15:23;18.40;99.90
57264;DHT22;43113;53.124;6.092;2022-10-16T13:29:45;18.70;99.30
57264;DHT22;43113;53.124;6.092;2022-10-16T13:32:21;18.50;99.60
57264;DHT22;43113;53.124;6.092;2022-10-16T13:34:48;18.20;99.90
57264;DHT22;43113;53.124;6.092;2022-10-16T13:37:20;18.20;99.90
57264;DHT22;43113;53.124;6.092;2022-10-16T13:39:47;18.50;99.90
57264;DHT22;43113;53.124;6.092;2022-10-16T13:42:24;18.70;99.90
57264;DHT22;43113;53.124;6.092;2022-10-16T13:44:52;19.00;99.70
57264;DHT22;43113;53.124;6.092;2022-10-16T13:47:21;19.00;99.90
57264;DHT22;43113;53.124;6.092;2022-10-16T13:50:02;19.10;99.90
57264;DHT22;43113;53.124;6.092;2022-10-16T13:52:29;19.20;99.90
57264;DHT22;43113;53.124;6.092;2022-10-16T13:54:55;19.40;99.90
57264;DHT22;43113;53.124;6.092;2022-10-16T13:57:23;19.60;99.90
57264;DHT22;43113;53.124;6.092;2022-10-16T13:59:49;19.70;99.40
57264;DHT22;43113;53.124;6.092;2022-10-16T14:02:24;19.60;99.80
57264;DHT22;43113;53.124;6.092;2022-10-16T14:04:51;19.50;99.80
57264;DHT22;43113;53.124;6.092;2022-10-16T14:07:30;19.40;99.50
57264;DHT22;43113;53.124;6.092;2022-10-16T14:10:01;19.20;98.80
57264;DHT22;43113;53.124;6.092;2022-10-16T14:12:27;19.00;99.70
57264;DHT22;43113;53.124;6.092;2022-10-16T14:14:54;18.90;99.10
57264;DHT22;43113;53.124;6.092;2022-10-16T14:17:32;18.70;99.90
57264;DHT22;43113;53.124;6.092;2022-10-16T14:20:02;18.60;99.90
57264;DHT22;43113;53.124;6.092;2022-10-16T14:22:37;18.50;99.90
57264;DHT22;43113;53.124;6.092;2022-10-16T14:28:14;18.10;99.90
57264;DHT22;43113;53.124;6.092;2022-10-16T14:30:55;17.90;99.90
57264;DHT22;43113;53.124;6.092;2022-10-16T14:38:35;17.70;99.90
57264;DHT22;43113;53.124;6.092;2022-10-16T14:41:01;17.60;99.90
57264;DHT22;43113;53.124;6.092;2022-10-16T14:43:37;17.50;99.90
57264;DHT22;43113;53.124;6.092;2022-10-16T14:46:11;17.40;99.90
57264;DHT22;43113;53.124;6.092;2022-10-16T14:48:41;17.20;99.90
57264;DHT22;43113;53.124;6.092;2022-10-16T14:51:13;17.10;99.90
57264;DHT22;43113;53.124;6.092;2022-10-16T14:53:40;17.00;99.90
57264;DHT22;43113;53.124;6.092;2022-10-16T14:56:16;16.90;99.90
57264;DHT22;43113;53.124;6.092;2022-10-16T14:58:42;16.90;99.90
57264;DHT22;43113;53.124;6.092;2022-10-16T15:01:10;16.80;99.90
57264;DHT22;43113;53.124;6.092;2022-10-16T15:03:36;16.70;99.90
57264;DHT22;43113;53.124;6.092;2022-10-16T15:06:02;16.70;99.90
57264;DHT22;43113;53.124;6.092;2022-10-16T15:08:28;16.60;99.90
57264;DHT22;43113;53.124;6.092;2022-10-16T15:10:53;16.50;99.90
57264;DHT22;43113;53.124;6.092;2022-10-16T15:13:19;16.50;99.90
57264;DHT22;43113;53.124;6.092;2022-10-16T15:15:47;16.40;99.90
57264;DHT22;43113;53.124;6.092;2022-10-16T15:18:14;16.40;99.90
57264;DHT22;43113;53.124;6.092;2022-10-16T15:20:47;16.40;99.90
57264;DHT22;43113;53.124;6.092;2022-10-16T15:23:14;16.30;99.90
57264;DHT22;43113;53.124;6.092;2022-10-16T15:25:50;16.30;99.90
57264;DHT22;43113;53.124;6.092;2022-10-16T15:28:17;16.20;99.90
57264;DHT22;43113;53.124;6.092;2022-10-16T15:30:44;16.10;99.90
57264;DHT22;43113;53.124;6.092;2022-10-16T15:33:16;16.00;99.90
57264;DHT22;43113;53.124;6.092;2022-10-16T15:35:45;16.00;99.90
57264;DHT22;43113;53.124;6.092;2022-10-16T15:38:12;15.90;99.90
57264;DHT22;43113;53.124;6.092;2022-10-16T15:40:38;15.80;99.90
57264;DHT22;43113;53.124;6.092;2022-10-16T15:43:05;15.70;99.90
57264;DHT22;43113;53.124;6.092;2022-10-16T15:45:31;15.60;99.90
57264;DHT22;43113;53.124;6.092;2022-10-16T15:47:57;15.50;99.90
57264;DHT22;43113;53.124;6.092;2022-10-16T15:50:23;15.40;99.90
57264;DHT22;43113;53.124;6.092;2022-10-16T15:52:50;15.30;99.90
57264;DHT22;43113;53.124;6.092;2022-10-16T15:55:16;15.20;99.90
57264;DHT22;43113;53.124;6.092;2022-10-16T15:57:42;15.00;99.90
57264;DHT22;43113;53.124;6.092;2022-10-16T16:00:11;14.90;99.90
57264;DHT22;43113;53.124;6.092;2022-10-16T16:02:38;14.80;99.90
57264;DHT22;43113;53.124;6.092;2022-10-16T16:05:04;14.70;99.90
57264;DHT22;43113;53.124;6.092;2022-10-16T16:07:37;14.60;99.90
57264;DHT22;43113;53.124;6.092;2022-10-16T16:10:04;14.50;99.90
57264;DHT22;43113;53.124;6.092;2022-10-16T16:12:31;14.40;99.90
57264;DHT22;43113;53.124;6.092;2022-10-16T16:14:56;14.30;99.90
57264;DHT22;43113;53.124;6.092;2022-10-16T16:17:22;14.20;99.90
57264;DHT22;43113;53.124;6.092;2022-10-16T16:19:49;14.10;99.90
57264;DHT22;43113;53.124;6.092;2022-10-16T16:22:15;14.00;99.90
57264;DHT22;43113;53.124;6.092;2022-10-16T16:24:41;13.90;99.90
57264;DHT22;43113;53.124;6.092;2022-10-16T16:27:07;13.80;99.90
57264;DHT22;43113;53.124;6.092;2022-10-16T16:29:33;13.70;99.90
57264;DHT22;43113;53.124;6.092;2022-10-16T16:32:00;13.60;99.90
57264;DHT22;43113;53.124;6.092;2022-10-16T16:34:27;13.50;99.90
57264;DHT22;43113;53.124;6.092;2022-10-16T16:36:56;13.40;99.90
57264;DHT22;43113;53.124;6.092;2022-10-16T16:39:22;13.30;99.90
57264;DHT22;43113;53.124;6.092;2022-10-16T16:41:48;13.30;99.90
57264;DHT22;43113;53.124;6.092;2022-10-16T16:44:15;13.20;99.90
57264;DHT22;43113;53.124;6.092;2022-10-16T16:46:42;13.10;99.90
57264;DHT22;43113;53.124;6.092;2022-10-16T16:49:13;13.00;99.90
57264;DHT22;43113;53.124;6.092;2022-10-16T16:51:39;12.90;99.90
57264;DHT22;43113;53.124;6.092;2022-10-16T16:54:06;12.90;99.90
57264;DHT22;43113;53.124;6.092;2022-10-16T16:56:33;12.80;99.90
57264;DHT22;43113;53.124;6.092;2022-10-16T16:58:59;12.70;99.90
57264;DHT22;43113;53.124;6.092;2022-10-16T17:01:26;12.60;99.90
57264;DHT22;43113;53.124;6.092;2022-10-16T17:03:53;12.50;99.90
57264;DHT22;43113;53.124;6.092;2022-10-16T17:06:21;12.60;99.90
57264;DHT22;43113;53.124;6.092;2022-10-16T17:08:48;12.30;99.90
57264;DHT22;43113;53.124;6.092;2022-10-16T17:11:20;12.30;99.90
57264;DHT22;43113;53.124;6.092;2022-10-16T17:13:46;12.20;99.90
57264;DHT22;43113;53.124;6.092;2022-10-16T17:16:12;12.10;99.90
57264;DHT22;43113;53.124;6.092;2022-10-16T17:18:38;12.00;99.90
57264;DHT22;43113;53.124;6.092;2022-10-16T17:21:07;12.00;99.90
57264;DHT22;43113;53.124;6.092;2022-10-16T17:23:35;12.00;99.90
57264;DHT22;43113;53.124;6.092;2022-10-16T17:26:10;12.00;99.90
57264;DHT22;43113;53.124;6.092;2022-10-16T17:28:37;12.00;99.90
57264;DHT22;43113;53.124;6.092;2022-10-16T17:31:12;12.00;99.90
57264;DHT22;43113;53.124;6.092;2022-10-16T17:33:38;11.90;99.90
57264;DHT22;43113;53.124;6.092;2022-10-16T17:36:04;11.90;99.90
57264;DHT22;43113;53.124;6.092;2022-10-16T17:38:30;11.90;99.90
57264;DHT22;43113;53.124;6.092;2022-10-16T17:40:56;11.80;99.90
57264;DHT22;43113;53.124;6.092;2022-10-16T17:43:21;11.80;99.90
57264;DHT22;43113;53.124;6.092;2022-10-16T17:45:47;11.70;99.90
57264;DHT22;43113;53.124;6.092;2022-10-16T17:48:13;11.70;99.90
57264;DHT22;43113;53.124;6.092;2022-10-16T17:50:42;11.60;99.90
57264;DHT22;43113;53.124;6.092;2022-10-16T17:53:08;11.60;99.90
57264;DHT22;43113;53.124;6.092;2022-10-16T17:55:38;11.60;99.90
57264;DHT22;43113;53.124;6.092;2022-10-16T17:58:04;11.50;99.90